sensor_id;sensor_type;location;lat;lon;timestamp;P1;durP1;ratioP1;P2;durP2;ratioP2
20209;SDS011;10264;53.178;5.840;2022-07-29T00:02:27;2.90;;;1.60;;
20209;SDS011;10264;53.178;5.840;2022-07-29T00:04:54;3.10;;;1.57;;
20209;SDS011;10264;53.178;5.840;2022-07-29T00:07:21;2.07;;;1.20;;
20209;SDS011;10264;53.178;5.840;2022-07-29T00:09:47;4.57;;;1.50;;
20209;SDS011;10264;53.178;5.840;2022-07-29T00:12:18;2.37;;;1.57;;
20209;SDS011;10264;53.178;5.840;2022-07-29T00:14:52;2.93;;;1.60;;
20209;SDS011;10264;53.178;5.840;2022-07-29T00:17:20;4.40;;;1.60;;
20209;SDS011;10264;53.178;5.840;2022-07-29T00:19:46;1.93;;;1.40;;
20209;SDS011;10264;53.178;5.840;2022-07-29T00:22:13;1.77;;;1.33;;
20209;SDS011;10264;53.178;5.840;2022-07-29T00:24:39;2.20;;;1.43;;
20209;SDS011;10264;53.178;5.840;2022-07-29T00:27:06;1.93;;;1.57;;
20209;SDS011;10264;53.178;5.840;2022-07-29T00:29:32;2.80;;;1.43;;
20209;SDS011;10264;53.178;5.840;2022-07-29T00:32:00;1.67;;;1.40;;
20209;SDS011;10264;53.178;5.840;2022-07-29T00:34:28;2.30;;;1.67;;
20209;SDS011;10264;53.178;5.840;2022-07-29T00:36:54;1.97;;;1.40;;
20209;SDS011;10264;53.178;5.840;2022-07-29T00:39:21;2.90;;;1.50;;
20209;SDS011;10264;53.178;5.840;2022-07-29T00:41:47;1.87;;;1.30;;
20209;SDS011;10264;53.178;5.840;2022-07-29T00:44:14;3.63;;;1.47;;
20209;SDS011;10264;53.178;5.840;2022-07-29T00:46:41;3.10;;;1.63;;
20209;SDS011;10264;53.178;5.840;2022-07-29T00:49:08;1.87;;;1.50;;
20209;SDS011;10264;53.178;5.840;2022-07-29T00:51:35;2.07;;;1.40;;
20209;SDS011;10264;53.178;5.840;2022-07-29T00:54:03;2.70;;;1.50;;
20209;SDS011;10264;53.178;5.840;2022-07-29T00:56:31;3.70;;;1.80;;
20209;SDS011;10264;53.178;5.840;2022-07-29T00:58:58;2.73;;;1.70;;
20209;SDS011;10264;53.178;5.840;2022-07-29T01:01:26;3.33;;;1.87;;
20209;SDS011;10264;53.178;5.840;2022-07-29T01:03:53;2.47;;;1.50;;
20209;SDS011;10264;53.178;5.840;2022-07-29T01:06:19;6.83;;;1.50;;
20209;SDS011;10264;53.178;5.840;2022-07-29T01:08:46;2.57;;;1.40;;
20209;SDS011;10264;53.178;5.840;2022-07-29T01:11:14;3.33;;;2.00;;
20209;SDS011;10264;53.178;5.840;2022-07-29T01:13:45;3.57;;;1.70;;
20209;SDS011;10264;53.178;5.840;2022-07-29T01:16:15;4.07;;;1.60;;
20209;SDS011;10264;53.178;5.840;2022-07-29T01:18:47;2.60;;;1.70;;
20209;SDS011;10264;53.178;5.840;2022-07-29T01:21:27;1.67;;;1.50;;
20209;SDS011;10264;53.178;5.840;2022-07-29T01:29:48;4.67;;;1.67;;
20209;SDS011;10264;53.178;5.840;2022-07-29T01:32:19;5.70;;;1.83;;
20209;SDS011;10264;53.178;5.840;2022-07-29T01:40:31;3.60;;;1.50;;
20209;SDS011;10264;53.178;5.840;2022-07-29T01:43:23;4.33;;;1.80;;
20209;SDS011;10264;53.178;5.840;2022-07-29T01:46:00;5.37;;;2.00;;
20209;SDS011;10264;53.178;5.840;2022-07-29T01:48:31;2.90;;;1.70;;
20209;SDS011;10264;53.178;5.840;2022-07-29T01:51:23;2.80;;;1.77;;
20209;SDS011;10264;53.178;5.840;2022-07-29T01:54:00;2.97;;;1.90;;
20209;SDS011;10264;53.178;5.840;2022-07-29T01:56:30;3.77;;;1.93;;
20209;SDS011;10264;53.178;5.840;2022-07-29T01:58:59;3.43;;;1.60;;
20209;SDS011;10264;53.178;5.840;2022-07-29T02:01:29;2.47;;;1.97;;
20209;SDS011;10264;53.178;5.840;2022-07-29T02:03:59;3.20;;;2.10;;
20209;SDS011;10264;53.178;5.840;2022-07-29T02:06:29;4.13;;;2.30;;
20209;SDS011;10264;53.178;5.840;2022-07-29T02:08:59;5.83;;;2.33;;
20209;SDS011;10264;53.178;5.840;2022-07-29T02:11:29;4.27;;;1.83;;
20209;SDS011;10264;53.178;5.840;2022-07-29T02:14:00;2.83;;;1.80;;
20209;SDS011;10264;53.178;5.840;2022-07-29T02:16:28;5.17;;;2.00;;
20209;SDS011;10264;53.178;5.840;2022-07-29T02:18:58;2.67;;;1.83;;
20209;SDS011;10264;53.178;5.840;2022-07-29T02:21:27;3.13;;;2.03;;
20209;SDS011;10264;53.178;5.840;2022-07-29T02:23:56;2.43;;;2.23;;
20209;SDS011;10264;53.178;5.840;2022-07-29T02:26:25;4.40;;;1.80;;
20209;SDS011;10264;53.178;5.840;2022-07-29T02:28:54;1.67;;;1.50;;
20209;SDS011;10264;53.178;5.840;2022-07-29T02:31:23;4.33;;;1.90;;
20209;SDS011;10264;53.178;5.840;2022-07-29T02:33:51;5.47;;;1.90;;
20209;SDS011;10264;53.178;5.840;2022-07-29T02:36:21;4.57;;;1.77;;
20209;SDS011;10264;53.178;5.840;2022-07-29T02:38:49;2.63;;;1.70;;
20209;SDS011;10264;53.178;5.840;2022-07-29T02:41:17;3.30;;;1.77;;
20209;SDS011;10264;53.178;5.840;2022-07-29T02:43:45;4.20;;;1.80;;
20209;SDS011;10264;53.178;5.840;2022-07-29T02:46:15;4.80;;;2.13;;
20209;SDS011;10264;53.178;5.840;2022-07-29T02:49:09;5.03;;;1.80;;
20209;SDS011;10264;53.178;5.840;2022-07-29T02:51:43;7.40;;;2.00;;
20209;SDS011;10264;53.178;5.840;2022-07-29T02:54:36;5.03;;;2.33;;
20209;SDS011;10264;53.178;5.840;2022-07-29T02:57:06;3.30;;;2.20;;
20209;SDS011;10264;53.178;5.840;2022-07-29T02:59:38;3.13;;;2.47;;
20209;SDS011;10264;53.178;5.840;2022-07-29T03:02:09;2.40;;;1.70;;
20209;SDS011;10264;53.178;5.840;2022-07-29T03:04:37;5.90;;;2.23;;
20209;SDS011;10264;53.178;5.840;2022-07-29T03:07:07;3.97;;;2.20;;
20209;SDS011;10264;53.178;5.840;2022-07-29T03:09:36;3.20;;;2.00;;
20209;SDS011;10264;53.178;5.840;2022-07-29T03:12:04;5.70;;;2.30;;
20209;SDS011;10264;53.178;5.840;2022-07-29T03:14:31;4.50;;;2.03;;
20209;SDS011;10264;53.178;5.840;2022-07-29T03:16:58;3.80;;;2.00;;
20209;SDS011;10264;53.178;5.840;2022-07-29T03:19:25;5.47;;;2.07;;
20209;SDS011;10264;53.178;5.840;2022-07-29T03:21:53;6.20;;;2.20;;
20209;SDS011;10264;53.178;5.840;2022-07-29T03:24:33;5.30;;;1.83;;
20209;SDS011;10264;53.178;5.840;2022-07-29T03:27:02;6.67;;;2.50;;
20209;SDS011;10264;53.178;5.840;2022-07-29T03:29:29;3.67;;;2.20;;
20209;SDS011;10264;53.178;5.840;2022-07-29T03:31:59;3.57;;;2.20;;
20209;SDS011;10264;53.178;5.840;2022-07-29T03:34:28;4.50;;;2.00;;
20209;SDS011;10264;53.178;5.840;2022-07-29T03:36:55;3.97;;;1.80;;
20209;SDS011;10264;53.178;5.840;2022-07-29T03:39:22;3.63;;;2.60;;
20209;SDS011;10264;53.178;5.840;2022-07-29T03:41:57;2.43;;;1.90;;
20209;SDS011;10264;53.178;5.840;2022-07-29T03:44:27;2.87;;;2.00;;
20209;SDS011;10264;53.178;5.840;2022-07-29T03:46:55;4.10;;;2.47;;
20209;SDS011;10264;53.178;5.840;2022-07-29T03:49:23;3.10;;;1.70;;
20209;SDS011;10264;53.178;5.840;2022-07-29T03:51:52;2.27;;;1.70;;
20209;SDS011;10264;53.178;5.840;2022-07-29T03:54:19;3.60;;;1.80;;
20209;SDS011;10264;53.178;5.840;2022-07-29T03:56:47;2.70;;;1.80;;
20209;SDS011;10264;53.178;5.840;2022-07-29T03:59:16;4.33;;;1.87;;
20209;SDS011;10264;53.178;5.840;2022-07-29T04:01:44;3.07;;;1.90;;
20209;SDS011;10264;53.178;5.840;2022-07-29T04:04:11;2.50;;;1.60;;
20209;SDS011;10264;53.178;5.840;2022-07-29T04:06:41;3.07;;;1.67;;
20209;SDS011;10264;53.178;5.840;2022-07-29T04:09:09;2.53;;;1.60;;
20209;SDS011;10264;53.178;5.840;2022-07-29T04:11:38;4.73;;;1.80;;
20209;SDS011;10264;53.178;5.840;2022-07-29T04:14:25;3.80;;;1.63;;
20209;SDS011;10264;53.178;5.840;2022-07-29T04:16:52;3.83;;;1.83;;
20209;SDS011;10264;53.178;5.840;2022-07-29T04:19:18;5.73;;;1.90;;
20209;SDS011;10264;53.178;5.840;2022-07-29T04:21:45;4.67;;;2.20;;
20209;SDS011;10264;53.178;5.840;2022-07-29T04:24:11;3.60;;;1.83;;
20209;SDS011;10264;53.178;5.840;2022-07-29T04:26:38;1.77;;;1.67;;
20209;SDS011;10264;53.178;5.840;2022-07-29T04:29:04;2.33;;;1.60;;
20209;SDS011;10264;53.178;5.840;2022-07-29T04:31:31;3.83;;;1.83;;
20209;SDS011;10264;53.178;5.840;2022-07-29T04:33:57;3.90;;;1.50;;
20209;SDS011;10264;53.178;5.840;2022-07-29T04:36:24;4.40;;;1.73;;
20209;SDS011;10264;53.178;5.840;2022-07-29T04:38:54;4.63;;;1.90;;
20209;SDS011;10264;53.178;5.840;2022-07-29T04:41:21;6.97;;;1.90;;
20209;SDS011;10264;53.178;5.840;2022-07-29T04:43:48;2.53;;;1.80;;
20209;SDS011;10264;53.178;5.840;2022-07-29T04:46:15;2.70;;;1.80;;
20209;SDS011;10264;53.178;5.840;2022-07-29T04:48:41;3.30;;;1.83;;
20209;SDS011;10264;53.178;5.840;2022-07-29T04:51:08;4.87;;;1.97;;
20209;SDS011;10264;53.178;5.840;2022-07-29T04:53:34;3.33;;;2.03;;
20209;SDS011;10264;53.178;5.840;2022-07-29T04:56:01;4.70;;;2.10;;
20209;SDS011;10264;53.178;5.840;2022-07-29T04:58:28;4.27;;;2.10;;
20209;SDS011;10264;53.178;5.840;2022-07-29T05:00:54;4.80;;;1.90;;
20209;SDS011;10264;53.178;5.840;2022-07-29T05:03:21;5.60;;;1.70;;
20209;SDS011;10264;53.178;5.840;2022-07-29T05:05:48;4.07;;;1.63;;
20209;SDS011;10264;53.178;5.840;2022-07-29T05:08:14;2.60;;;1.87;;
20209;SDS011;10264;53.178;5.840;2022-07-29T05:10:40;3.10;;;1.60;;
20209;SDS011;10264;53.178;5.840;2022-07-29T05:13:07;3.63;;;1.70;;
20209;SDS011;10264;53.178;5.840;2022-07-29T05:15:34;5.10;;;1.90;;
20209;SDS011;10264;53.178;5.840;2022-07-29T05:18:01;3.17;;;1.93;;
20209;SDS011;10264;53.178;5.840;2022-07-29T05:20:28;2.07;;;1.70;;
20209;SDS011;10264;53.178;5.840;2022-07-29T05:22:56;4.77;;;1.80;;
20209;SDS011;10264;53.178;5.840;2022-07-29T05:25:23;2.67;;;1.70;;
20209;SDS011;10264;53.178;5.840;2022-07-29T05:28:09;2.83;;;1.60;;
20209;SDS011;10264;53.178;5.840;2022-07-29T05:30:35;2.40;;;1.60;;
20209;SDS011;10264;53.178;5.840;2022-07-29T05:33:02;4.27;;;2.20;;
20209;SDS011;10264;53.178;5.840;2022-07-29T05:35:28;3.30;;;1.70;;
20209;SDS011;10264;53.178;5.840;2022-07-29T05:37:55;3.97;;;1.57;;
20209;SDS011;10264;53.178;5.840;2022-07-29T05:40:21;3.63;;;1.70;;
20209;SDS011;10264;53.178;5.840;2022-07-29T05:42:48;2.60;;;1.70;;
20209;SDS011;10264;53.178;5.840;2022-07-29T05:45:14;3.30;;;1.70;;
20209;SDS011;10264;53.178;5.840;2022-07-29T05:47:41;1.60;;;1.50;;
20209;SDS011;10264;53.178;5.840;2022-07-29T05:50:07;3.60;;;1.50;;
20209;SDS011;10264;53.178;5.840;2022-07-29T05:52:34;2.93;;;1.60;;
20209;SDS011;10264;53.178;5.840;2022-07-29T05:55:00;3.20;;;1.20;;
20209;SDS011;10264;53.178;5.840;2022-07-29T05:57:27;4.13;;;1.60;;
20209;SDS011;10264;53.178;5.840;2022-07-29T05:59:53;3.40;;;1.67;;
20209;SDS011;10264;53.178;5.840;2022-07-29T06:02:20;4.17;;;1.80;;
20209;SDS011;10264;53.178;5.840;2022-07-29T06:04:46;2.63;;;1.50;;
20209;SDS011;10264;53.178;5.840;2022-07-29T06:07:13;6.03;;;2.30;;
20209;SDS011;10264;53.178;5.840;2022-07-29T06:09:39;5.30;;;1.93;;
20209;SDS011;10264;53.178;5.840;2022-07-29T06:12:06;3.17;;;1.47;;
20209;SDS011;10264;53.178;5.840;2022-07-29T06:14:32;4.87;;;1.60;;
20209;SDS011;10264;53.178;5.840;2022-07-29T06:16:59;2.43;;;1.40;;
20209;SDS011;10264;53.178;5.840;2022-07-29T06:19:25;2.80;;;1.70;;
20209;SDS011;10264;53.178;5.840;2022-07-29T06:21:52;2.70;;;1.47;;
20209;SDS011;10264;53.178;5.840;2022-07-29T06:24:18;4.37;;;1.67;;
20209;SDS011;10264;53.178;5.840;2022-07-29T06:26:45;2.00;;;1.70;;
20209;SDS011;10264;53.178;5.840;2022-07-29T06:29:11;5.60;;;1.60;;
20209;SDS011;10264;53.178;5.840;2022-07-29T06:31:38;5.20;;;2.07;;
20209;SDS011;10264;53.178;5.840;2022-07-29T06:34:05;4.30;;;1.40;;
20209;SDS011;10264;53.178;5.840;2022-07-29T06:36:34;2.53;;;1.30;;
20209;SDS011;10264;53.178;5.840;2022-07-29T06:39:06;5.97;;;1.77;;
20209;SDS011;10264;53.178;5.840;2022-07-29T06:41:33;2.47;;;1.40;;
20209;SDS011;10264;53.178;5.840;2022-07-29T06:44:00;1.67;;;1.30;;
20209;SDS011;10264;53.178;5.840;2022-07-29T06:46:27;4.50;;;1.60;;
20209;SDS011;10264;53.178;5.840;2022-07-29T06:48:53;10.50;;;2.63;;
20209;SDS011;10264;53.178;5.840;2022-07-29T06:51:20;4.73;;;1.77;;
20209;SDS011;10264;53.178;5.840;2022-07-29T06:53:50;4.27;;;1.60;;
20209;SDS011;10264;53.178;5.840;2022-07-29T06:56:27;3.03;;;1.57;;
20209;SDS011;10264;53.178;5.840;2022-07-29T06:58:54;5.87;;;1.50;;
20209;SDS011;10264;53.178;5.840;2022-07-29T07:01:21;5.00;;;1.73;;
20209;SDS011;10264;53.178;5.840;2022-07-29T07:03:48;3.50;;;1.70;;
20209;SDS011;10264;53.178;5.840;2022-07-29T07:06:14;5.50;;;1.73;;
20209;SDS011;10264;53.178;5.840;2022-07-29T07:08:41;4.60;;;1.53;;
20209;SDS011;10264;53.178;5.840;2022-07-29T07:11:08;3.77;;;1.90;;
20209;SDS011;10264;53.178;5.840;2022-07-29T07:13:34;4.07;;;1.60;;
20209;SDS011;10264;53.178;5.840;2022-07-29T07:16:02;4.17;;;1.60;;
20209;SDS011;10264;53.178;5.840;2022-07-29T07:18:29;4.87;;;1.67;;
20209;SDS011;10264;53.178;5.840;2022-07-29T07:20:56;3.90;;;1.60;;
20209;SDS011;10264;53.178;5.840;2022-07-29T07:23:23;5.30;;;1.70;;
20209;SDS011;10264;53.178;5.840;2022-07-29T07:25:50;4.67;;;2.10;;
20209;SDS011;10264;53.178;5.840;2022-07-29T07:28:16;3.97;;;2.30;;
20209;SDS011;10264;53.178;5.840;2022-07-29T07:30:49;4.63;;;1.70;;
20209;SDS011;10264;53.178;5.840;2022-07-29T07:33:16;3.93;;;1.70;;
20209;SDS011;10264;53.178;5.840;2022-07-29T07:35:42;3.00;;;1.70;;
20209;SDS011;10264;53.178;5.840;2022-07-29T07:38:09;3.53;;;1.87;;
20209;SDS011;10264;53.178;5.840;2022-07-29T07:40:35;4.80;;;1.80;;
20209;SDS011;10264;53.178;5.840;2022-07-29T07:43:02;3.50;;;2.00;;
20209;SDS011;10264;53.178;5.840;2022-07-29T07:45:29;3.03;;;1.83;;
20209;SDS011;10264;53.178;5.840;2022-07-29T07:47:55;4.73;;;1.83;;
20209;SDS011;10264;53.178;5.840;2022-07-29T07:50:22;2.83;;;1.60;;
20209;SDS011;10264;53.178;5.840;2022-07-29T07:52:53;2.73;;;1.90;;
20209;SDS011;10264;53.178;5.840;2022-07-29T07:55:20;2.30;;;2.00;;
20209;SDS011;10264;53.178;5.840;2022-07-29T07:57:47;4.10;;;1.97;;
20209;SDS011;10264;53.178;5.840;2022-07-29T08:00:14;4.77;;;2.10;;
20209;SDS011;10264;53.178;5.840;2022-07-29T08:02:42;4.20;;;2.40;;
20209;SDS011;10264;53.178;5.840;2022-07-29T08:05:09;6.83;;;2.77;;
20209;SDS011;10264;53.178;5.840;2022-07-29T08:07:38;7.70;;;2.20;;
20209;SDS011;10264;53.178;5.840;2022-07-29T08:10:04;3.97;;;1.90;;
20209;SDS011;10264;53.178;5.840;2022-07-29T08:12:31;4.03;;;2.10;;
20209;SDS011;10264;53.178;5.840;2022-07-29T08:14:58;4.13;;;2.00;;
20209;SDS011;10264;53.178;5.840;2022-07-29T08:17:24;4.00;;;1.87;;
20209;SDS011;10264;53.178;5.840;2022-07-29T08:19:51;5.80;;;2.00;;
20209;SDS011;10264;53.178;5.840;2022-07-29T08:22:17;4.67;;;1.93;;
20209;SDS011;10264;53.178;5.840;2022-07-29T08:24:44;4.10;;;2.10;;
20209;SDS011;10264;53.178;5.840;2022-07-29T08:27:10;2.50;;;1.67;;
20209;SDS011;10264;53.178;5.840;2022-07-29T08:29:57;4.00;;;1.77;;
20209;SDS011;10264;53.178;5.840;2022-07-29T08:32:24;2.20;;;1.83;;
20209;SDS011;10264;53.178;5.840;2022-07-29T08:35:10;4.60;;;2.07;;
20209;SDS011;10264;53.178;5.840;2022-07-29T08:37:37;3.13;;;1.60;;
20209;SDS011;10264;53.178;5.840;2022-07-29T08:40:03;3.90;;;1.90;;
20209;SDS011;10264;53.178;5.840;2022-07-29T08:42:30;4.43;;;2.10;;
20209;SDS011;10264;53.178;5.840;2022-07-29T08:44:57;3.57;;;1.97;;
20209;SDS011;10264;53.178;5.840;2022-07-29T08:47:25;3.80;;;2.03;;
20209;SDS011;10264;53.178;5.840;2022-07-29T08:49:53;6.07;;;2.20;;
20209;SDS011;10264;53.178;5.840;2022-07-29T08:52:20;2.47;;;1.90;;
20209;SDS011;10264;53.178;5.840;2022-07-29T08:54:47;3.93;;;2.00;;
20209;SDS011;10264;53.178;5.840;2022-07-29T08:57:14;2.73;;;2.03;;
20209;SDS011;10264;53.178;5.840;2022-07-29T08:59:43;5.13;;;1.70;;
20209;SDS011;10264;53.178;5.840;2022-07-29T09:02:18;2.20;;;1.77;;
20209;SDS011;10264;53.178;5.840;2022-07-29T09:04:46;4.43;;;2.10;;
20209;SDS011;10264;53.178;5.840;2022-07-29T09:07:17;3.97;;;1.83;;
20209;SDS011;10264;53.178;5.840;2022-07-29T09:09:44;3.80;;;1.90;;
20209;SDS011;10264;53.178;5.840;2022-07-29T09:12:12;3.10;;;2.00;;
20209;SDS011;10264;53.178;5.840;2022-07-29T09:14:54;6.37;;;2.00;;
20209;SDS011;10264;53.178;5.840;2022-07-29T09:17:42;4.57;;;2.50;;
20209;SDS011;10264;53.178;5.840;2022-07-29T09:20:18;3.13;;;1.77;;
20209;SDS011;10264;53.178;5.840;2022-07-29T09:22:46;6.03;;;1.90;;
20209;SDS011;10264;53.178;5.840;2022-07-29T09:25:13;5.13;;;2.37;;
20209;SDS011;10264;53.178;5.840;2022-07-29T09:27:39;6.27;;;2.40;;
20209;SDS011;10264;53.178;5.840;2022-07-29T09:30:07;3.50;;;1.80;;
20209;SDS011;10264;53.178;5.840;2022-07-29T09:32:53;5.43;;;2.00;;
20209;SDS011;10264;53.178;5.840;2022-07-29T09:35:22;4.80;;;2.10;;
20209;SDS011;10264;53.178;5.840;2022-07-29T09:37:51;3.33;;;1.80;;
20209;SDS011;10264;53.178;5.840;2022-07-29T09:40:19;3.27;;;2.27;;
20209;SDS011;10264;53.178;5.840;2022-07-29T09:42:47;8.87;;;2.10;;
20209;SDS011;10264;53.178;5.840;2022-07-29T09:47:54;2.63;;;1.70;;
20209;SDS011;10264;53.178;5.840;2022-07-29T09:50:21;5.57;;;2.03;;
20209;SDS011;10264;53.178;5.840;2022-07-29T09:52:48;4.67;;;2.67;;
20209;SDS011;10264;53.178;5.840;2022-07-29T09:55:16;3.40;;;2.30;;
20209;SDS011;10264;53.178;5.840;2022-07-29T09:57:45;5.30;;;2.47;;
20209;SDS011;10264;53.178;5.840;2022-07-29T10:00:14;7.13;;;2.27;;
20209;SDS011;10264;53.178;5.840;2022-07-29T10:02:44;3.10;;;2.07;;
20209;SDS011;10264;53.178;5.840;2022-07-29T10:05:30;4.73;;;2.07;;
20209;SDS011;10264;53.178;5.840;2022-07-29T10:08:02;3.93;;;1.97;;
20209;SDS011;10264;53.178;5.840;2022-07-29T10:10:32;5.23;;;2.17;;
20209;SDS011;10264;53.178;5.840;2022-07-29T10:13:04;4.63;;;2.00;;
20209;SDS011;10264;53.178;5.840;2022-07-29T10:15:40;6.07;;;2.43;;
20209;SDS011;10264;53.178;5.840;2022-07-29T10:18:08;3.73;;;1.97;;
20209;SDS011;10264;53.178;5.840;2022-07-29T10:20:35;3.80;;;2.27;;
20209;SDS011;10264;53.178;5.840;2022-07-29T10:23:03;2.97;;;1.93;;
20209;SDS011;10264;53.178;5.840;2022-07-29T10:25:30;3.50;;;2.00;;
20209;SDS011;10264;53.178;5.840;2022-07-29T10:27:56;4.17;;;1.90;;
20209;SDS011;10264;53.178;5.840;2022-07-29T10:30:24;4.97;;;2.40;;
20209;SDS011;10264;53.178;5.840;2022-07-29T10:35:58;3.43;;;2.00;;
20209;SDS011;10264;53.178;5.840;2022-07-29T10:43:35;2.60;;;1.90;;
20209;SDS011;10264;53.178;5.840;2022-07-29T10:46:03;2.60;;;2.00;;
20209;SDS011;10264;53.178;5.840;2022-07-29T10:54:21;3.60;;;2.10;;
20209;SDS011;10264;53.178;5.840;2022-07-29T10:57:12;3.63;;;2.27;;
20209;SDS011;10264;53.178;5.840;2022-07-29T10:59:39;6.17;;;2.30;;
20209;SDS011;10264;53.178;5.840;2022-07-29T11:05:12;5.83;;;2.77;;
20209;SDS011;10264;53.178;5.840;2022-07-29T11:08:17;6.37;;;2.70;;
20209;SDS011;10264;53.178;5.840;2022-07-29T11:10:46;5.77;;;2.33;;
20209;SDS011;10264;53.178;5.840;2022-07-29T11:16:20;4.83;;;2.90;;
20209;SDS011;10264;53.178;5.840;2022-07-29T11:21:40;5.33;;;3.03;;
20209;SDS011;10264;53.178;5.840;2022-07-29T11:24:27;4.80;;;2.47;;
20209;SDS011;10264;53.178;5.840;2022-07-29T11:27:14;4.50;;;2.70;;
20209;SDS011;10264;53.178;5.840;2022-07-29T11:32:22;4.77;;;2.50;;
20209;SDS011;10264;53.178;5.840;2022-07-29T11:38:45;5.20;;;2.70;;
20209;SDS011;10264;53.178;5.840;2022-07-29T11:43:58;6.17;;;2.80;;
20209;SDS011;10264;53.178;5.840;2022-07-29T11:49:11;4.47;;;2.50;;
20209;SDS011;10264;53.178;5.840;2022-07-29T11:51:40;3.90;;;2.27;;
20209;SDS011;10264;53.178;5.840;2022-07-29T11:54:13;6.17;;;2.63;;
20209;SDS011;10264;53.178;5.840;2022-07-29T11:56:52;4.50;;;2.67;;
20209;SDS011;10264;53.178;5.840;2022-07-29T11:59:19;7.60;;;2.90;;
20209;SDS011;10264;53.178;5.840;2022-07-29T12:01:53;4.27;;;2.47;;
20209;SDS011;10264;53.178;5.840;2022-07-29T12:04:53;6.80;;;2.97;;
20209;SDS011;10264;53.178;5.840;2022-07-29T12:07:28;6.70;;;3.00;;
20209;SDS011;10264;53.178;5.840;2022-07-29T12:10:00;4.43;;;2.87;;
20209;SDS011;10264;53.178;5.840;2022-07-29T12:12:27;5.37;;;2.63;;
20209;SDS011;10264;53.178;5.840;2022-07-29T12:14:54;5.70;;;2.90;;
20209;SDS011;10264;53.178;5.840;2022-07-29T12:17:28;4.23;;;2.70;;
20209;SDS011;10264;53.178;5.840;2022-07-29T12:19:57;13.00;;;2.77;;
20209;SDS011;10264;53.178;5.840;2022-07-29T12:22:25;3.57;;;2.67;;
20209;SDS011;10264;53.178;5.840;2022-07-29T12:24:53;4.73;;;2.70;;
20209;SDS011;10264;53.178;5.840;2022-07-29T12:27:41;5.10;;;2.70;;
20209;SDS011;10264;53.178;5.840;2022-07-29T12:30:09;5.40;;;2.63;;
20209;SDS011;10264;53.178;5.840;2022-07-29T12:32:44;4.97;;;2.70;;
20209;SDS011;10264;53.178;5.840;2022-07-29T12:35:13;5.77;;;2.83;;
20209;SDS011;10264;53.178;5.840;2022-07-29T12:37:42;5.10;;;2.83;;
20209;SDS011;10264;53.178;5.840;2022-07-29T12:40:11;4.97;;;2.50;;
20209;SDS011;10264;53.178;5.840;2022-07-29T12:42:39;4.37;;;2.80;;
20209;SDS011;10264;53.178;5.840;2022-07-29T12:45:06;5.60;;;3.03;;
20209;SDS011;10264;53.178;5.840;2022-07-29T12:47:32;6.53;;;2.50;;
20209;SDS011;10264;53.178;5.840;2022-07-29T12:50:16;4.00;;;3.07;;
20209;SDS011;10264;53.178;5.840;2022-07-29T12:52:43;3.87;;;2.77;;
20209;SDS011;10264;53.178;5.840;2022-07-29T12:55:11;4.47;;;2.83;;
20209;SDS011;10264;53.178;5.840;2022-07-29T12:57:44;7.43;;;3.00;;
20209;SDS011;10264;53.178;5.840;2022-07-29T13:00:12;4.67;;;2.73;;
20209;SDS011;10264;53.178;5.840;2022-07-29T13:02:40;6.03;;;3.00;;
20209;SDS011;10264;53.178;5.840;2022-07-29T13:05:08;5.43;;;2.70;;
20209;SDS011;10264;53.178;5.840;2022-07-29T13:07:36;7.43;;;2.90;;
20209;SDS011;10264;53.178;5.840;2022-07-29T13:10:21;3.90;;;2.47;;
20209;SDS011;10264;53.178;5.840;2022-07-29T13:15:28;5.40;;;2.87;;
20209;SDS011;10264;53.178;5.840;2022-07-29T13:17:55;5.70;;;3.00;;
20209;SDS011;10264;53.178;5.840;2022-07-29T13:20:25;5.63;;;3.20;;
20209;SDS011;10264;53.178;5.840;2022-07-29T13:22:54;6.77;;;3.30;;
20209;SDS011;10264;53.178;5.840;2022-07-29T13:27:52;5.50;;;2.97;;
20209;SDS011;10264;53.178;5.840;2022-07-29T13:30:19;4.53;;;2.73;;
20209;SDS011;10264;53.178;5.840;2022-07-29T13:32:46;6.63;;;3.40;;
20209;SDS011;10264;53.178;5.840;2022-07-29T13:35:13;7.30;;;3.30;;
20209;SDS011;10264;53.178;5.840;2022-07-29T13:37:40;6.63;;;3.00;;
20209;SDS011;10264;53.178;5.840;2022-07-29T13:40:07;7.47;;;3.13;;
20209;SDS011;10264;53.178;5.840;2022-07-29T13:42:34;5.23;;;2.60;;
20209;SDS011;10264;53.178;5.840;2022-07-29T13:45:01;4.27;;;2.80;;
20209;SDS011;10264;53.178;5.840;2022-07-29T13:47:27;6.77;;;2.93;;
20209;SDS011;10264;53.178;5.840;2022-07-29T13:49:58;5.63;;;3.20;;
20209;SDS011;10264;53.178;5.840;2022-07-29T13:52:25;6.27;;;3.20;;
20209;SDS011;10264;53.178;5.840;2022-07-29T13:54:51;5.37;;;3.20;;
20209;SDS011;10264;53.178;5.840;2022-07-29T13:57:18;8.37;;;3.60;;
20209;SDS011;10264;53.178;5.840;2022-07-29T13:59:45;7.00;;;3.10;;
20209;SDS011;10264;53.178;5.840;2022-07-29T14:02:18;9.37;;;3.47;;
20209;SDS011;10264;53.178;5.840;2022-07-29T14:04:45;5.80;;;2.50;;
20209;SDS011;10264;53.178;5.840;2022-07-29T14:07:11;4.80;;;3.13;;
20209;SDS011;10264;53.178;5.840;2022-07-29T14:09:41;7.10;;;3.20;;
20209;SDS011;10264;53.178;5.840;2022-07-29T14:12:08;6.00;;;3.33;;
20209;SDS011;10264;53.178;5.840;2022-07-29T14:14:35;7.67;;;3.00;;
20209;SDS011;10264;53.178;5.840;2022-07-29T14:17:02;16.40;;;4.03;;
20209;SDS011;10264;53.178;5.840;2022-07-29T14:19:28;9.20;;;3.80;;
20209;SDS011;10264;53.178;5.840;2022-07-29T14:21:55;7.47;;;3.67;;
20209;SDS011;10264;53.178;5.840;2022-07-29T14:24:23;4.27;;;3.47;;
20209;SDS011;10264;53.178;5.840;2022-07-29T14:26:50;6.57;;;3.30;;
20209;SDS011;10264;53.178;5.840;2022-07-29T14:29:17;7.90;;;3.53;;
20209;SDS011;10264;53.178;5.840;2022-07-29T14:31:43;5.13;;;2.90;;
20209;SDS011;10264;53.178;5.840;2022-07-29T14:34:10;5.27;;;2.87;;
20209;SDS011;10264;53.178;5.840;2022-07-29T14:36:36;6.20;;;3.40;;
20209;SDS011;10264;53.178;5.840;2022-07-29T14:39:03;6.23;;;3.30;;
20209;SDS011;10264;53.178;5.840;2022-07-29T14:41:29;6.77;;;3.27;;
20209;SDS011;10264;53.178;5.840;2022-07-29T14:43:56;7.30;;;3.60;;
20209;SDS011;10264;53.178;5.840;2022-07-29T14:46:22;7.70;;;3.27;;
20209;SDS011;10264;53.178;5.840;2022-07-29T14:48:49;4.47;;;3.10;;
20209;SDS011;10264;53.178;5.840;2022-07-29T14:51:15;8.27;;;3.77;;
20209;SDS011;10264;53.178;5.840;2022-07-29T14:53:41;5.40;;;3.90;;
20209;SDS011;10264;53.178;5.840;2022-07-29T14:56:08;6.93;;;3.60;;
20209;SDS011;10264;53.178;5.840;2022-07-29T14:58:56;6.53;;;3.80;;
20209;SDS011;10264;53.178;5.840;2022-07-29T15:01:23;7.37;;;4.13;;
20209;SDS011;10264;53.178;5.840;2022-07-29T15:03:50;9.53;;;3.90;;
20209;SDS011;10264;53.178;5.840;2022-07-29T15:06:21;5.00;;;3.30;;
20209;SDS011;10264;53.178;5.840;2022-07-29T15:08:48;6.23;;;3.20;;
20209;SDS011;10264;53.178;5.840;2022-07-29T15:11:14;8.43;;;3.27;;
20209;SDS011;10264;53.178;5.840;2022-07-29T15:13:41;8.33;;;3.53;;
20209;SDS011;10264;53.178;5.840;2022-07-29T15:16:07;5.97;;;3.30;;
20209;SDS011;10264;53.178;5.840;2022-07-29T15:18:34;4.80;;;3.50;;
20209;SDS011;10264;53.178;5.840;2022-07-29T15:21:02;5.53;;;3.47;;
20209;SDS011;10264;53.178;5.840;2022-07-29T15:23:28;7.77;;;3.60;;
20209;SDS011;10264;53.178;5.840;2022-07-29T15:25:54;7.80;;;3.60;;
20209;SDS011;10264;53.178;5.840;2022-07-29T15:28:21;7.57;;;3.30;;
20209;SDS011;10264;53.178;5.840;2022-07-29T15:30:47;7.73;;;3.10;;
20209;SDS011;10264;53.178;5.840;2022-07-29T15:33:14;8.93;;;3.47;;
20209;SDS011;10264;53.178;5.840;2022-07-29T15:35:40;6.53;;;3.70;;
20209;SDS011;10264;53.178;5.840;2022-07-29T15:38:07;7.37;;;3.17;;
20209;SDS011;10264;53.178;5.840;2022-07-29T15:40:34;5.00;;;3.47;;
20209;SDS011;10264;53.178;5.840;2022-07-29T15:43:03;6.57;;;4.03;;
20209;SDS011;10264;53.178;5.840;2022-07-29T15:45:34;10.13;;;3.80;;
20209;SDS011;10264;53.178;5.840;2022-07-29T15:48:06;5.27;;;3.47;;
20209;SDS011;10264;53.178;5.840;2022-07-29T15:50:34;7.87;;;2.83;;
20209;SDS011;10264;53.178;5.840;2022-07-29T15:53:00;7.87;;;3.10;;
20209;SDS011;10264;53.178;5.840;2022-07-29T15:55:27;4.90;;;3.10;;